QTR111 OMAA-UACC
Flight info
| Callsign | QTR111 |
|---|---|
| Flight time | 4h 21m |
| Altitude | 35000 |
| Route | TULON2K TULON M318 ASMET/N0495F370 M318 RIKOP B114 ASB B359 MAVAX A370 DARVA/K0891F370 M75 KOKON KOKON4N |
| Aircraft | B77W/H-SDE2E3GHIJ1J3J4J5LM1ORWXYZ/LB1D1 |
Departure
| Time | 2026-04-27 07:58 |
|---|---|
| Airport | Zayed International Airport (OMAA) |
Arrival
| Time | 2026-04-27 12:20 |
|---|---|
| Airport | Nursultan Nazarbayev International Airport (UACC) |
| Time | Latitude | Longitude | Altitude | Speed | Heading |
|---|---|---|---|---|---|
| 2026-04-27 07:26 | 24.44471 | 54.64541 | 94 ft | 0 kts | 304° |
| 2026-04-27 07:47 | 24.44469 | 54.64544 | 93 ft | 1 kts | 304° |
| 2026-04-27 07:47 | 24.44466 | 54.64549 | 94 ft | 1 kts | 304° |
| 2026-04-27 07:47 | 24.44464 | 54.64553 | 94 ft | 1 kts | 304° |
| 2026-04-27 07:48 | 24.44459 | 54.64560 | 94 ft | 1 kts | 304° |
| 2026-04-27 07:48 | 24.44456 | 54.64565 | 93 ft | 1 kts | 304° |
| 2026-04-27 07:48 | 24.44453 | 54.64569 | 92 ft | 2 kts | 304° |
| 2026-04-27 07:48 | 24.44444 | 54.64585 | 93 ft | 2 kts | 304° |
| 2026-04-27 07:49 | 24.44438 | 54.64599 | 95 ft | 5 kts | 264° |
| 2026-04-27 07:49 | 24.44445 | 54.64616 | 91 ft | 0 kts | 215° |
| 2026-04-27 07:50 | 24.44439 | 54.64612 | 95 ft | 4 kts | 216° |
| 2026-04-27 07:50 | 24.44391 | 54.64573 | 97 ft | 13 kts | 216° |
| 2026-04-27 07:50 | 24.44306 | 54.64478 | 96 ft | 22 kts | 226° |
| 2026-04-27 07:50 | 24.44175 | 54.64343 | 96 ft | 22 kts | 218° |
| 2026-04-27 07:51 | 24.44145 | 54.64325 | 95 ft | 8 kts | 196° |
| 2026-04-27 07:51 | 24.44069 | 54.64365 | 95 ft | 17 kts | 139° |
| 2026-04-27 07:51 | 24.43970 | 54.64487 | 94 ft | 25 kts | 128° |
| 2026-04-27 07:51 | 24.43881 | 54.64611 | 93 ft | 24 kts | 128° |
| 2026-04-27 07:52 | 24.43790 | 54.64737 | 93 ft | 20 kts | 128° |
| 2026-04-27 07:52 | 24.43703 | 54.64859 | 92 ft | 20 kts | 128° |
| 2026-04-27 07:52 | 24.43621 | 54.64973 | 93 ft | 20 kts | 128° |
| 2026-04-27 07:52 | 24.43533 | 54.65095 | 93 ft | 20 kts | 128° |
| 2026-04-27 07:53 | 24.43446 | 54.65216 | 94 ft | 20 kts | 128° |
| 2026-04-27 07:53 | 24.43359 | 54.65338 | 95 ft | 20 kts | 128° |
| 2026-04-27 07:53 | 24.43278 | 54.65453 | 93 ft | 19 kts | 127° |
| 2026-04-27 07:53 | 24.43199 | 54.65566 | 93 ft | 19 kts | 127° |
| 2026-04-27 07:54 | 24.43120 | 54.65680 | 91 ft | 19 kts | 127° |
| 2026-04-27 07:54 | 24.43042 | 54.65793 | 90 ft | 19 kts | 128° |
| 2026-04-27 07:54 | 24.42963 | 54.65906 | 92 ft | 19 kts | 127° |
| 2026-04-27 07:54 | 24.42882 | 54.66018 | 92 ft | 19 kts | 129° |
| 2026-04-27 07:55 | 24.42801 | 54.66129 | 93 ft | 19 kts | 127° |
| 2026-04-27 07:55 | 24.42722 | 54.66243 | 93 ft | 19 kts | 127° |
| 2026-04-27 07:55 | 24.42643 | 54.66358 | 91 ft | 19 kts | 127° |
| 2026-04-27 07:55 | 24.42563 | 54.66471 | 92 ft | 19 kts | 128° |
| 2026-04-27 07:56 | 24.42482 | 54.66584 | 93 ft | 19 kts | 128° |
| 2026-04-27 07:56 | 24.42391 | 54.66696 | 92 ft | 20 kts | 152° |
| 2026-04-27 07:56 | 24.42297 | 54.66656 | 67 ft | 10 kts | 221° |
| 2026-04-27 07:56 | 24.42266 | 54.66576 | 67 ft | 13 kts | 290° |
| 2026-04-27 07:57 | 24.42277 | 54.66559 | 71 ft | 0 kts | 310° |
| 2026-04-27 07:57 | 24.42337 | 54.66473 | 66 ft | 46 kts | 308° |
| 2026-04-27 07:58 | 24.42698 | 54.65967 | 68 ft | 120 kts | 308° |
| 2026-04-27 07:58 | 24.43345 | 54.65068 | 87 ft | 177 kts | 310° |
| 2026-04-27 07:58 | 24.44075 | 54.63958 | 683 ft | 175 kts | 306° |
| 2026-04-27 07:58 | 24.44826 | 54.62861 | 1289 ft | 180 kts | 309° |
| 2026-04-27 07:59 | 24.45612 | 54.61783 | 1800 ft | 190 kts | 309° |
| 2026-04-27 07:59 | 24.47470 | 54.59255 | 2617 ft | 225 kts | 309° |
| 2026-04-27 07:59 | 24.48409 | 54.57924 | 3263 ft | 229 kts | 309° |
| 2026-04-27 08:00 | 24.49384 | 54.56542 | 4037 ft | 229 kts | 309° |
| 2026-04-27 08:00 | 24.50346 | 54.55179 | 4804 ft | 229 kts | 309° |
| 2026-04-27 08:00 | 24.51328 | 54.53788 | 5531 ft | 231 kts | 309° |
| 2026-04-27 08:00 | 24.52291 | 54.52422 | 6233 ft | 233 kts | 308° |
| 2026-04-27 08:01 | 24.53285 | 54.51019 | 6958 ft | 233 kts | 308° |
| 2026-04-27 08:01 | 24.54292 | 54.49597 | 7564 ft | 238 kts | 307° |
| 2026-04-27 08:01 | 24.55308 | 54.48163 | 8193 ft | 241 kts | 307° |
| 2026-04-27 08:01 | 24.56334 | 54.46710 | 8803 ft | 244 kts | 306° |
| 2026-04-27 08:02 | 24.57378 | 54.45232 | 8998 ft | 247 kts | 306° |
| 2026-04-27 08:02 | 24.58432 | 54.43739 | 8997 ft | 246 kts | 307° |
| 2026-04-27 08:02 | 24.59721 | 54.42547 | 9001 ft | 246 kts | 332° |
| 2026-04-27 08:02 | 24.61349 | 54.42105 | 9008 ft | 257 kts | 353° |
| 2026-04-27 08:03 | 24.63141 | 54.42351 | 8985 ft | 266 kts | 17° |
| 2026-04-27 08:03 | 24.64778 | 54.43340 | 9025 ft | 271 kts | 25° |
| 2026-04-27 08:03 | 24.66400 | 54.44440 | 9002 ft | 275 kts | 26° |
| 2026-04-27 08:03 | 24.68017 | 54.45544 | 8986 ft | 272 kts | 26° |
| 2026-04-27 08:04 | 24.69602 | 54.46612 | 8985 ft | 268 kts | 25° |
| 2026-04-27 08:04 | 24.71194 | 54.47674 | 8987 ft | 268 kts | 25° |
| 2026-04-27 08:04 | 24.72774 | 54.48756 | 8979 ft | 267 kts | 32° |
| 2026-04-27 08:04 | 24.73941 | 54.50360 | 9008 ft | 278 kts | 60° |
| 2026-04-27 08:05 | 24.74734 | 54.52350 | 9014 ft | 288 kts | 62° |
| 2026-04-27 08:05 | 24.75537 | 54.54375 | 8995 ft | 288 kts | 61° |
| 2026-04-27 08:05 | 24.76337 | 54.56382 | 8980 ft | 284 kts | 61° |
| 2026-04-27 08:05 | 24.77128 | 54.58364 | 8981 ft | 283 kts | 61° |
| 2026-04-27 08:06 | 24.77939 | 54.60388 | 9130 ft | 298 kts | 61° |
| 2026-04-27 08:06 | 24.78790 | 54.62512 | 9647 ft | 308 kts | 62° |
| 2026-04-27 08:06 | 24.79665 | 54.64695 | 10197 ft | 315 kts | 62° |
| 2026-04-27 08:06 | 24.80574 | 54.66853 | 10479 ft | 334 kts | 56° |
| 2026-04-27 08:07 | 24.82060 | 54.68856 | 10631 ft | 345 kts | 39° |
| 2026-04-27 08:07 | 24.83879 | 54.70707 | 10789 ft | 368 kts | 39° |
| 2026-04-27 08:07 | 24.85802 | 54.72689 | 11058 ft | 388 kts | 40° |
| 2026-04-27 08:07 | 24.87771 | 54.74784 | 11607 ft | 399 kts | 41° |
| 2026-04-27 08:08 | 24.89772 | 54.76949 | 12293 ft | 406 kts | 41° |
| 2026-04-27 08:08 | 24.91798 | 54.79143 | 13096 ft | 411 kts | 40° |
| 2026-04-27 08:08 | 24.94048 | 54.81079 | 13794 ft | 413 kts | 30° |
| 2026-04-27 08:08 | 24.96519 | 54.82712 | 14452 ft | 417 kts | 27° |
| 2026-04-27 08:09 | 24.99051 | 54.84304 | 15189 ft | 420 kts | 26° |
| 2026-04-27 08:09 | 25.01567 | 54.85898 | 15943 ft | 423 kts | 27° |
| 2026-04-27 08:09 | 25.04117 | 54.87555 | 16677 ft | 427 kts | 28° |
| 2026-04-27 08:09 | 25.06678 | 54.89259 | 17373 ft | 432 kts | 28° |
| 2026-04-27 08:10 | 25.09257 | 54.90991 | 18078 ft | 437 kts | 28° |
| 2026-04-27 08:10 | 25.11832 | 54.92724 | 18676 ft | 441 kts | 28° |
| 2026-04-27 08:10 | 25.14371 | 54.94671 | 19233 ft | 449 kts | 35° |
| 2026-04-27 08:10 | 25.16757 | 54.96935 | 19830 ft | 456 kts | 41° |
| 2026-04-27 08:11 | 25.18947 | 54.99491 | 20422 ft | 462 kts | 45° |
| 2026-04-27 08:11 | 25.21101 | 55.02148 | 20971 ft | 467 kts | 45° |
| 2026-04-27 08:11 | 25.23273 | 55.04835 | 21494 ft | 473 kts | 45° |
| 2026-04-27 08:11 | 25.25497 | 55.07543 | 22077 ft | 477 kts | 45° |
| 2026-04-27 08:12 | 25.27746 | 55.10250 | 22654 ft | 480 kts | 44° |
| 2026-04-27 08:12 | 25.30137 | 55.12845 | 23201 ft | 483 kts | 38° |
| 2026-04-27 08:12 | 25.32762 | 55.15163 | 23658 ft | 484 kts | 32° |
| 2026-04-27 08:12 | 25.35522 | 55.17316 | 24104 ft | 488 kts | 31° |
| 2026-04-27 08:13 | 25.38313 | 55.19477 | 24538 ft | 491 kts | 31° |
| 2026-04-27 08:13 | 25.41107 | 55.21679 | 25008 ft | 495 kts | 32° |
| 2026-04-27 08:13 | 25.43901 | 55.23912 | 25462 ft | 498 kts | 32° |
| 2026-04-27 08:13 | 25.46719 | 55.26167 | 25897 ft | 501 kts | 31° |
| 2026-04-27 08:14 | 25.49558 | 55.28412 | 26379 ft | 503 kts | 31° |
| 2026-04-27 08:14 | 25.52419 | 55.30667 | 26864 ft | 505 kts | 31° |
| 2026-04-27 08:14 | 25.55259 | 55.32984 | 27277 ft | 510 kts | 34° |
| 2026-04-27 08:14 | 25.57945 | 55.35587 | 27658 ft | 517 kts | 39° |
| 2026-04-27 08:15 | 25.60564 | 55.38339 | 28038 ft | 520 kts | 40° |
| 2026-04-27 08:15 | 25.63180 | 55.41131 | 28407 ft | 523 kts | 40° |
| 2026-04-27 08:15 | 25.65809 | 55.43936 | 28762 ft | 526 kts | 40° |
| 2026-04-27 08:15 | 25.68460 | 55.46746 | 29082 ft | 529 kts | 39° |
| 2026-04-27 08:16 | 25.71137 | 55.49567 | 29410 ft | 532 kts | 39° |
| 2026-04-27 08:16 | 25.73830 | 55.52396 | 29779 ft | 533 kts | 39° |
| 2026-04-27 08:16 | 25.76521 | 55.55223 | 30190 ft | 532 kts | 39° |
| 2026-04-27 08:16 | 25.79196 | 55.58037 | 30644 ft | 530 kts | 39° |
| 2026-04-27 08:17 | 25.81872 | 55.60853 | 31104 ft | 528 kts | 39° |
| 2026-04-27 08:17 | 25.84549 | 55.63623 | 31525 ft | 525 kts | 36° |
| 2026-04-27 08:17 | 25.87375 | 55.66176 | 31860 ft | 521 kts | 30° |
| 2026-04-27 08:17 | 25.90382 | 55.68385 | 32246 ft | 516 kts | 26° |
| 2026-04-27 08:18 | 25.93429 | 55.70470 | 32659 ft | 514 kts | 25° |
| 2026-04-27 08:18 | 25.96468 | 55.72556 | 33082 ft | 513 kts | 25° |
| 2026-04-27 08:18 | 25.99484 | 55.74674 | 33483 ft | 511 kts | 26° |
| 2026-04-27 08:18 | 26.02460 | 55.76762 | 33858 ft | 507 kts | 22° |
| 2026-04-27 08:19 | 26.05621 | 55.78381 | 34141 ft | 495 kts | 11° |
| 2026-04-27 08:19 | 26.08895 | 55.79277 | 34389 ft | 485 kts | 1° |
| 2026-04-27 08:19 | 26.12259 | 55.79599 | 34655 ft | 475 kts | 352° |
| 2026-04-27 08:19 | 26.15521 | 55.79342 | 34853 ft | 470 kts | 348° |
| 2026-04-27 08:20 | 26.22098 | 55.79417 | 34913 ft | 476 kts | 359° |
| 2026-04-27 08:20 | 26.28634 | 55.80697 | 34924 ft | 477 kts | 3° |
| 2026-04-27 08:21 | 26.35152 | 55.82125 | 34923 ft | 477 kts | 3° |
| 2026-04-27 08:21 | 26.41628 | 55.83509 | 34926 ft | 477 kts | 2° |
| 2026-04-27 08:22 | 26.48160 | 55.84878 | 34919 ft | 478 kts | 2° |
| 2026-04-27 08:22 | 26.54711 | 55.86247 | 34917 ft | 480 kts | 2° |
| 2026-04-27 08:23 | 26.61284 | 55.87627 | 34918 ft | 481 kts | 2° |
| 2026-04-27 08:23 | 26.67872 | 55.89015 | 34912 ft | 482 kts | 2° |
| 2026-04-27 08:24 | 26.74467 | 55.90404 | 34906 ft | 482 kts | 2° |
| 2026-04-27 08:24 | 26.81064 | 55.91463 | 34900 ft | 477 kts | 358° |
| 2026-04-27 08:25 | 26.87656 | 55.92219 | 34906 ft | 476 kts | 358° |
| 2026-04-27 08:25 | 26.94246 | 55.92972 | 34921 ft | 476 kts | 358° |
| 2026-04-27 08:26 | 27.00814 | 55.93759 | 34909 ft | 477 kts | 358° |
| 2026-04-27 08:26 | 27.07407 | 55.94567 | 34905 ft | 477 kts | 358° |
| 2026-04-27 08:27 | 27.13998 | 55.95378 | 34911 ft | 476 kts | 358° |
| 2026-04-27 08:27 | 27.20595 | 55.96191 | 34933 ft | 477 kts | 357° |
| 2026-04-27 08:28 | 27.27189 | 55.97002 | 34926 ft | 477 kts | 357° |
| 2026-04-27 08:28 | 27.33787 | 55.97814 | 34918 ft | 477 kts | 357° |
| 2026-04-27 08:29 | 27.40381 | 55.98628 | 34932 ft | 476 kts | 357° |
| 2026-04-27 08:29 | 27.46932 | 55.99436 | 34974 ft | 477 kts | 357° |
| 2026-04-27 08:30 | 27.53384 | 56.00232 | 34962 ft | 478 kts | 357° |
| 2026-04-27 08:30 | 27.59998 | 56.01052 | 34987 ft | 478 kts | 357° |
| 2026-04-27 08:31 | 27.66609 | 56.01871 | 35002 ft | 478 kts | 357° |
| 2026-04-27 08:31 | 27.73234 | 56.02693 | 35004 ft | 479 kts | 357° |
| 2026-04-27 08:32 | 27.79856 | 56.03518 | 35016 ft | 478 kts | 357° |
| 2026-04-27 08:32 | 27.86465 | 56.04341 | 35033 ft | 478 kts | 357° |
| 2026-04-27 08:33 | 27.93087 | 56.05166 | 35026 ft | 479 kts | 357° |
| 2026-04-27 08:33 | 27.99709 | 56.05995 | 35056 ft | 479 kts | 356° |
| 2026-04-27 08:34 | 28.06317 | 56.06822 | 35042 ft | 480 kts | 356° |
| 2026-04-27 08:34 | 28.12950 | 56.07659 | 35056 ft | 479 kts | 356° |
| 2026-04-27 08:35 | 28.18461 | 56.08356 | 35053 ft | 480 kts | 357° |
| 2026-04-27 08:35 | 28.25095 | 56.09286 | 35059 ft | 481 kts | 358° |
| 2026-04-27 08:36 | 28.31734 | 56.10249 | 35063 ft | 481 kts | 358° |
| 2026-04-27 08:36 | 28.39504 | 56.11371 | 35086 ft | 482 kts | 358° |
| 2026-04-27 08:37 | 28.45032 | 56.12163 | 35092 ft | 482 kts | 358° |
| 2026-04-27 08:37 | 28.51697 | 56.13118 | 35129 ft | 484 kts | 357° |
| 2026-04-27 08:38 | 28.58383 | 56.14079 | 35135 ft | 485 kts | 357° |
| 2026-04-27 08:38 | 28.65081 | 56.15045 | 35154 ft | 485 kts | 358° |
| 2026-04-27 08:39 | 28.71787 | 56.16016 | 35158 ft | 486 kts | 358° |
| 2026-04-27 08:39 | 28.78498 | 56.16987 | 35195 ft | 486 kts | 357° |
| 2026-04-27 08:40 | 28.85202 | 56.17942 | 35192 ft | 486 kts | 357° |
| 2026-04-27 08:40 | 28.91914 | 56.18888 | 35208 ft | 485 kts | 357° |
| 2026-04-27 08:41 | 28.98613 | 56.19840 | 35212 ft | 485 kts | 357° |
| 2026-04-27 08:41 | 29.05068 | 56.20763 | 35231 ft | 486 kts | 357° |
| 2026-04-27 08:42 | 29.11778 | 56.21726 | 35237 ft | 486 kts | 357° |
| 2026-04-27 08:42 | 29.18489 | 56.22690 | 35233 ft | 486 kts | 357° |
| 2026-04-27 08:43 | 29.25162 | 56.23650 | 35241 ft | 487 kts | 357° |
| 2026-04-27 08:43 | 29.31926 | 56.24624 | 35259 ft | 487 kts | 357° |
| 2026-04-27 08:44 | 29.38648 | 56.25594 | 35258 ft | 487 kts | 357° |
| 2026-04-27 08:44 | 29.45330 | 56.26558 | 35278 ft | 487 kts | 357° |
| 2026-04-27 08:45 | 29.52058 | 56.27532 | 35302 ft | 488 kts | 357° |
| 2026-04-27 08:45 | 29.58793 | 56.28507 | 35295 ft | 488 kts | 357° |
| 2026-04-27 08:46 | 29.65529 | 56.29484 | 35306 ft | 488 kts | 357° |
| 2026-04-27 08:46 | 29.72209 | 56.30455 | 35315 ft | 488 kts | 357° |
| 2026-04-27 08:47 | 29.78937 | 56.31433 | 35316 ft | 488 kts | 357° |
| 2026-04-27 08:47 | 29.85675 | 56.32416 | 35317 ft | 487 kts | 358° |
| 2026-04-27 08:48 | 29.92394 | 56.33397 | 35306 ft | 487 kts | 358° |
| 2026-04-27 08:48 | 29.99110 | 56.34379 | 35326 ft | 486 kts | 357° |
| 2026-04-27 08:49 | 30.05802 | 56.35359 | 35296 ft | 487 kts | 357° |
| 2026-04-27 08:49 | 30.12515 | 56.36348 | 35279 ft | 486 kts | 357° |
| 2026-04-27 08:50 | 30.19226 | 56.37334 | 35267 ft | 486 kts | 357° |
| 2026-04-27 08:50 | 30.25938 | 56.38304 | 35282 ft | 486 kts | 357° |
| 2026-04-27 08:51 | 30.32650 | 56.39269 | 35254 ft | 486 kts | 357° |
| 2026-04-27 08:51 | 30.39358 | 56.40243 | 35252 ft | 486 kts | 357° |
| 2026-04-27 08:52 | 30.46069 | 56.41223 | 35245 ft | 486 kts | 357° |
| 2026-04-27 08:52 | 30.52787 | 56.42206 | 35245 ft | 487 kts | 358° |
| 2026-04-27 08:53 | 30.59503 | 56.43190 | 35234 ft | 486 kts | 358° |
| 2026-04-27 08:53 | 30.66208 | 56.44174 | 35227 ft | 486 kts | 358° |
| 2026-04-27 08:54 | 30.72912 | 56.45160 | 35236 ft | 485 kts | 358° |
| 2026-04-27 08:54 | 30.79616 | 56.46147 | 35240 ft | 485 kts | 358° |
| 2026-04-27 08:55 | 30.86311 | 56.47135 | 35226 ft | 486 kts | 358° |
| 2026-04-27 08:55 | 30.92972 | 56.48123 | 35226 ft | 486 kts | 358° |
| 2026-04-27 08:56 | 30.99685 | 56.49116 | 35243 ft | 487 kts | 358° |
| 2026-04-27 08:56 | 31.06383 | 56.50081 | 35229 ft | 487 kts | 358° |
| 2026-04-27 08:57 | 31.16472 | 56.51530 | 35216 ft | 486 kts | 358° |
| 2026-04-27 08:58 | 31.23190 | 56.52507 | 35235 ft | 486 kts | 358° |
| 2026-04-27 08:58 | 31.29913 | 56.53484 | 35200 ft | 487 kts | 358° |
| 2026-04-27 08:59 | 31.36631 | 56.54469 | 35182 ft | 486 kts | 358° |
| 2026-04-27 08:59 | 31.43343 | 56.55453 | 35176 ft | 487 kts | 358° |
| 2026-04-27 09:00 | 31.50071 | 56.56437 | 35150 ft | 488 kts | 358° |
| 2026-04-27 09:00 | 31.56816 | 56.57420 | 35149 ft | 489 kts | 358° |
| 2026-04-27 09:01 | 31.63567 | 56.58407 | 35160 ft | 489 kts | 358° |
| 2026-04-27 09:01 | 31.70321 | 56.59402 | 35147 ft | 489 kts | 358° |
| 2026-04-27 09:02 | 31.77084 | 56.60403 | 35104 ft | 490 kts | 358° |
| 2026-04-27 09:02 | 31.83833 | 56.61406 | 35108 ft | 489 kts | 358° |
| 2026-04-27 09:03 | 31.90580 | 56.62410 | 35094 ft | 489 kts | 358° |
| 2026-04-27 09:03 | 31.97331 | 56.63415 | 35089 ft | 489 kts | 358° |
| 2026-04-27 09:04 | 32.04060 | 56.64407 | 35086 ft | 489 kts | 358° |
| 2026-04-27 09:04 | 32.10820 | 56.65403 | 35073 ft | 490 kts | 358° |
| 2026-04-27 09:05 | 32.17590 | 56.66410 | 35069 ft | 490 kts | 359° |
| 2026-04-27 09:05 | 32.24352 | 56.67421 | 35063 ft | 490 kts | 359° |
| 2026-04-27 09:06 | 32.31116 | 56.68436 | 35058 ft | 490 kts | 359° |
| 2026-04-27 09:06 | 32.37873 | 56.69450 | 35058 ft | 489 kts | 359° |
| 2026-04-27 09:07 | 32.44581 | 56.70457 | 35068 ft | 489 kts | 359° |
| 2026-04-27 09:07 | 32.51335 | 56.71473 | 35052 ft | 489 kts | 359° |
| 2026-04-27 09:08 | 32.58086 | 56.72491 | 35044 ft | 489 kts | 359° |
| 2026-04-27 09:08 | 32.64843 | 56.73512 | 35033 ft | 489 kts | 359° |
| 2026-04-27 09:09 | 32.71598 | 56.74534 | 35032 ft | 489 kts | 359° |
| 2026-04-27 09:09 | 32.78348 | 56.75558 | 35025 ft | 490 kts | 359° |
| 2026-04-27 09:10 | 32.85114 | 56.76588 | 35016 ft | 490 kts | 359° |
| 2026-04-27 09:10 | 32.91876 | 56.77620 | 35026 ft | 491 kts | 359° |
| 2026-04-27 09:11 | 32.98652 | 56.78649 | 35013 ft | 491 kts | 359° |
| 2026-04-27 09:11 | 33.05419 | 56.79685 | 35003 ft | 492 kts | 360° |
| 2026-04-27 09:12 | 33.12211 | 56.80735 | 34996 ft | 492 kts | 360° |
| 2026-04-27 09:12 | 33.19006 | 56.81791 | 35004 ft | 493 kts | 360° |
| 2026-04-27 09:13 | 33.25805 | 56.82843 | 35012 ft | 493 kts | 360° |
| 2026-04-27 09:13 | 33.32609 | 56.83872 | 34997 ft | 492 kts | 360° |
| 2026-04-27 09:14 | 33.39408 | 56.84900 | 35008 ft | 493 kts | 0° |
| 2026-04-27 09:14 | 33.46215 | 56.85941 | 35005 ft | 494 kts | 0° |
| 2026-04-27 09:15 | 33.53031 | 56.86989 | 35001 ft | 494 kts | 0° |
| 2026-04-27 09:15 | 33.59844 | 56.88042 | 35006 ft | 494 kts | 0° |
| 2026-04-27 09:16 | 33.66669 | 56.89098 | 35015 ft | 495 kts | 1° |
| 2026-04-27 09:16 | 33.73467 | 56.90712 | 35014 ft | 499 kts | 5° |
| 2026-04-27 09:17 | 33.80252 | 56.92548 | 35010 ft | 500 kts | 6° |
| 2026-04-27 09:17 | 33.87032 | 56.94378 | 35032 ft | 499 kts | 6° |
| 2026-04-27 09:18 | 33.93779 | 56.96173 | 35022 ft | 500 kts | 5° |
| 2026-04-27 09:18 | 34.00526 | 56.97963 | 35023 ft | 499 kts | 5° |
| 2026-04-27 09:19 | 34.07305 | 56.99765 | 35021 ft | 499 kts | 5° |
| 2026-04-27 09:19 | 34.13919 | 57.01528 | 35019 ft | 499 kts | 5° |
| 2026-04-27 09:20 | 34.20694 | 57.03339 | 35018 ft | 499 kts | 6° |
| 2026-04-27 09:20 | 34.27474 | 57.05158 | 35015 ft | 499 kts | 6° |
| 2026-04-27 09:21 | 34.34256 | 57.06975 | 35026 ft | 499 kts | 6° |
| 2026-04-27 09:21 | 34.41046 | 57.08782 | 35007 ft | 500 kts | 6° |
| 2026-04-27 09:22 | 34.47841 | 57.10590 | 35002 ft | 500 kts | 6° |
| 2026-04-27 09:22 | 34.53484 | 57.12102 | 35009 ft | 500 kts | 6° |
| 2026-04-27 09:23 | 34.60278 | 57.13928 | 35019 ft | 500 kts | 6° |
| 2026-04-27 09:23 | 34.67083 | 57.15761 | 35013 ft | 501 kts | 6° |
| 2026-04-27 09:24 | 34.73894 | 57.17600 | 35021 ft | 501 kts | 6° |
| 2026-04-27 09:24 | 34.80700 | 57.19442 | 35044 ft | 501 kts | 7° |
| 2026-04-27 09:25 | 34.87511 | 57.21291 | 35026 ft | 502 kts | 7° |
| 2026-04-27 09:25 | 34.94322 | 57.23138 | 35019 ft | 501 kts | 7° |
| 2026-04-27 09:26 | 35.01060 | 57.24962 | 35028 ft | 501 kts | 7° |
| 2026-04-27 09:26 | 35.07855 | 57.26811 | 35035 ft | 500 kts | 7° |
| 2026-04-27 09:27 | 35.14650 | 57.28671 | 35041 ft | 500 kts | 7° |
| 2026-04-27 09:27 | 35.21439 | 57.30535 | 35042 ft | 500 kts | 7° |
| 2026-04-27 09:28 | 35.28223 | 57.32400 | 35065 ft | 500 kts | 7° |
| 2026-04-27 09:28 | 35.35011 | 57.34270 | 35048 ft | 500 kts | 7° |
| 2026-04-27 09:29 | 35.41792 | 57.36142 | 35047 ft | 499 kts | 7° |
| 2026-04-27 09:29 | 35.48567 | 57.38015 | 35054 ft | 499 kts | 7° |
| 2026-04-27 09:30 | 35.55333 | 57.39887 | 35058 ft | 498 kts | 8° |
| 2026-04-27 09:30 | 35.62091 | 57.41763 | 35061 ft | 498 kts | 8° |
| 2026-04-27 09:31 | 35.68843 | 57.43641 | 35061 ft | 497 kts | 8° |
| 2026-04-27 09:31 | 35.75582 | 57.45518 | 35060 ft | 497 kts | 8° |
| 2026-04-27 09:32 | 35.82284 | 57.47392 | 35041 ft | 497 kts | 8° |
| 2026-04-27 09:32 | 35.89027 | 57.49280 | 35080 ft | 497 kts | 8° |
| 2026-04-27 09:33 | 35.95769 | 57.51158 | 35114 ft | 497 kts | 8° |
| 2026-04-27 09:33 | 36.02494 | 57.53025 | 35127 ft | 497 kts | 8° |
| 2026-04-27 09:34 | 36.09231 | 57.54912 | 35145 ft | 496 kts | 9° |
| 2026-04-27 09:34 | 36.15956 | 57.56802 | 35145 ft | 496 kts | 10° |
| 2026-04-27 09:35 | 36.22551 | 57.59400 | 35158 ft | 498 kts | 16° |
| 2026-04-27 09:35 | 36.29073 | 57.62348 | 35139 ft | 499 kts | 16° |
| 2026-04-27 09:36 | 36.35592 | 57.65285 | 35113 ft | 499 kts | 16° |
| 2026-04-27 09:36 | 36.42121 | 57.68189 | 35071 ft | 499 kts | 16° |
| 2026-04-27 09:37 | 36.48664 | 57.71096 | 35051 ft | 499 kts | 16° |
| 2026-04-27 09:37 | 36.55197 | 57.74008 | 35037 ft | 499 kts | 16° |
| 2026-04-27 09:38 | 36.61729 | 57.76928 | 35044 ft | 499 kts | 16° |
| 2026-04-27 09:38 | 36.68275 | 57.79846 | 35049 ft | 499 kts | 16° |
| 2026-04-27 09:39 | 36.74819 | 57.82759 | 35054 ft | 499 kts | 16° |
| 2026-04-27 09:39 | 36.81358 | 57.85685 | 35061 ft | 499 kts | 16° |
| 2026-04-27 09:40 | 36.87897 | 57.88623 | 35064 ft | 499 kts | 16° |
| 2026-04-27 09:40 | 36.94431 | 57.91565 | 35063 ft | 499 kts | 16° |
| 2026-04-27 09:41 | 37.00939 | 57.94502 | 35059 ft | 499 kts | 17° |
| 2026-04-27 09:41 | 37.07467 | 57.97456 | 35081 ft | 499 kts | 17° |
| 2026-04-27 09:42 | 37.13818 | 58.00329 | 35068 ft | 499 kts | 17° |
| 2026-04-27 09:42 | 37.20361 | 58.03261 | 35068 ft | 499 kts | 16° |
| 2026-04-27 09:43 | 37.26899 | 58.06187 | 35063 ft | 499 kts | 16° |
| 2026-04-27 09:43 | 37.33401 | 58.09112 | 35061 ft | 499 kts | 17° |
| 2026-04-27 09:44 | 37.39933 | 58.12064 | 35068 ft | 499 kts | 17° |
| 2026-04-27 09:44 | 37.46467 | 58.15022 | 35074 ft | 499 kts | 17° |
| 2026-04-27 09:45 | 37.53002 | 58.17988 | 35071 ft | 499 kts | 17° |
| 2026-04-27 09:45 | 37.59528 | 58.20958 | 35066 ft | 499 kts | 17° |
| 2026-04-27 09:46 | 37.66057 | 58.23924 | 35077 ft | 498 kts | 16° |
| 2026-04-27 09:46 | 37.72720 | 58.26148 | 35071 ft | 494 kts | 8° |
| 2026-04-27 09:47 | 37.79457 | 58.27890 | 35076 ft | 494 kts | 8° |
| 2026-04-27 09:47 | 37.86192 | 58.29689 | 35070 ft | 495 kts | 9° |
| 2026-04-27 09:48 | 37.92917 | 58.31550 | 35060 ft | 495 kts | 9° |
| 2026-04-27 09:48 | 37.99644 | 58.33414 | 35036 ft | 495 kts | 10° |
| 2026-04-27 09:49 | 38.06263 | 58.35804 | 35037 ft | 497 kts | 14° |
| 2026-04-27 09:49 | 38.12865 | 58.38429 | 35040 ft | 497 kts | 14° |
| 2026-04-27 09:50 | 38.19424 | 58.41039 | 35037 ft | 497 kts | 14° |
| 2026-04-27 09:50 | 38.26032 | 58.43645 | 35036 ft | 497 kts | 14° |
| 2026-04-27 09:51 | 38.32632 | 58.46241 | 35047 ft | 497 kts | 14° |
| 2026-04-27 09:51 | 38.39237 | 58.48843 | 35036 ft | 496 kts | 14° |
| 2026-04-27 09:52 | 38.45835 | 58.51450 | 35044 ft | 496 kts | 14° |
| 2026-04-27 09:52 | 38.52417 | 58.54057 | 35038 ft | 495 kts | 14° |
| 2026-04-27 09:53 | 38.58992 | 58.56667 | 35051 ft | 495 kts | 14° |
| 2026-04-27 09:53 | 38.65575 | 58.59286 | 35049 ft | 495 kts | 14° |
| 2026-04-27 09:54 | 38.72153 | 58.61913 | 35050 ft | 495 kts | 14° |
| 2026-04-27 09:54 | 38.78731 | 58.64537 | 35048 ft | 495 kts | 14° |
| 2026-04-27 09:55 | 38.85314 | 58.67149 | 35052 ft | 495 kts | 14° |
| 2026-04-27 09:55 | 38.95190 | 58.71091 | 35055 ft | 496 kts | 14° |
| 2026-04-27 09:56 | 39.01750 | 58.73722 | 35063 ft | 496 kts | 14° |
| 2026-04-27 09:56 | 39.08252 | 58.76722 | 35060 ft | 498 kts | 22° |
| 2026-04-27 09:57 | 39.14344 | 58.80999 | 35065 ft | 499 kts | 28° |
| 2026-04-27 09:57 | 39.20370 | 58.85454 | 35063 ft | 499 kts | 27° |
| 2026-04-27 09:58 | 39.26431 | 58.89836 | 35084 ft | 499 kts | 27° |
| 2026-04-27 09:58 | 39.32459 | 58.94170 | 35069 ft | 499 kts | 27° |
| 2026-04-27 09:59 | 39.38561 | 58.98574 | 35074 ft | 499 kts | 27° |
| 2026-04-27 09:59 | 39.44456 | 59.02850 | 35083 ft | 499 kts | 27° |
| 2026-04-27 10:00 | 39.50461 | 59.07220 | 35090 ft | 498 kts | 27° |
| 2026-04-27 10:00 | 39.56488 | 59.11607 | 35087 ft | 496 kts | 27° |
| 2026-04-27 10:01 | 39.62484 | 59.16013 | 35086 ft | 495 kts | 27° |
| 2026-04-27 10:01 | 39.68472 | 59.20440 | 35098 ft | 494 kts | 27° |
| 2026-04-27 10:02 | 39.74446 | 59.24867 | 35102 ft | 494 kts | 28° |
| 2026-04-27 10:02 | 39.80414 | 59.29298 | 35085 ft | 494 kts | 28° |
| 2026-04-27 10:03 | 39.86381 | 59.33741 | 35103 ft | 494 kts | 28° |
| 2026-04-27 10:03 | 39.92354 | 59.38180 | 35097 ft | 494 kts | 27° |
| 2026-04-27 10:04 | 39.98344 | 59.42582 | 35098 ft | 495 kts | 27° |
| 2026-04-27 10:04 | 40.04316 | 59.46977 | 35099 ft | 495 kts | 27° |
| 2026-04-27 10:05 | 40.10307 | 59.51411 | 35099 ft | 495 kts | 27° |
| 2026-04-27 10:05 | 40.16295 | 59.55858 | 35118 ft | 495 kts | 27° |
| 2026-04-27 10:06 | 40.22284 | 59.60315 | 35104 ft | 495 kts | 27° |
| 2026-04-27 10:06 | 40.28276 | 59.64784 | 35108 ft | 495 kts | 27° |
| 2026-04-27 10:07 | 40.34257 | 59.69258 | 35107 ft | 495 kts | 28° |
| 2026-04-27 10:07 | 40.40230 | 59.73733 | 35109 ft | 494 kts | 27° |
| 2026-04-27 10:08 | 40.46197 | 59.78205 | 35124 ft | 494 kts | 27° |
| 2026-04-27 10:08 | 40.52162 | 59.82693 | 35115 ft | 494 kts | 28° |
| 2026-04-27 10:09 | 40.58122 | 59.87198 | 35115 ft | 494 kts | 28° |
| 2026-04-27 10:09 | 40.64077 | 59.91711 | 35118 ft | 494 kts | 28° |
| 2026-04-27 10:10 | 40.69993 | 59.96205 | 35126 ft | 494 kts | 28° |
| 2026-04-27 10:10 | 40.75779 | 60.00608 | 35126 ft | 494 kts | 28° |
| 2026-04-27 10:11 | 40.81719 | 60.05139 | 35124 ft | 493 kts | 28° |
| 2026-04-27 10:11 | 40.86701 | 60.08947 | 35127 ft | 493 kts | 28° |
| 2026-04-27 10:12 | 40.93606 | 60.14238 | 35134 ft | 493 kts | 28° |
| 2026-04-27 10:12 | 40.98577 | 60.18060 | 35131 ft | 494 kts | 28° |
| 2026-04-27 10:13 | 41.04456 | 60.22579 | 35125 ft | 494 kts | 28° |
| 2026-04-27 10:13 | 41.10411 | 60.27123 | 35127 ft | 494 kts | 27° |
| 2026-04-27 10:14 | 41.16367 | 60.31666 | 35128 ft | 494 kts | 28° |
| 2026-04-27 10:14 | 41.22318 | 60.36232 | 35133 ft | 494 kts | 28° |
| 2026-04-27 10:15 | 41.28268 | 60.40813 | 35140 ft | 495 kts | 28° |
| 2026-04-27 10:15 | 41.34195 | 60.45488 | 35139 ft | 496 kts | 30° |
| 2026-04-27 10:16 | 41.40025 | 60.50411 | 35140 ft | 497 kts | 31° |
| 2026-04-27 10:16 | 41.45856 | 60.55352 | 35150 ft | 497 kts | 30° |
| 2026-04-27 10:17 | 41.51710 | 60.60276 | 35148 ft | 497 kts | 30° |
| 2026-04-27 10:17 | 41.57440 | 60.65459 | 35141 ft | 499 kts | 37° |
| 2026-04-27 10:18 | 41.62450 | 60.71869 | 35159 ft | 500 kts | 46° |
| 2026-04-27 10:18 | 41.67119 | 60.78783 | 35148 ft | 501 kts | 47° |
| 2026-04-27 10:19 | 41.71781 | 60.85703 | 35164 ft | 501 kts | 46° |
| 2026-04-27 10:19 | 41.76469 | 60.92604 | 35153 ft | 501 kts | 46° |
| 2026-04-27 10:20 | 41.81163 | 60.99500 | 35158 ft | 500 kts | 46° |
| 2026-04-27 10:20 | 41.85720 | 61.06213 | 35158 ft | 500 kts | 46° |
| 2026-04-27 10:21 | 41.90391 | 61.13114 | 35160 ft | 499 kts | 46° |
| 2026-04-27 10:21 | 41.95050 | 61.20020 | 35162 ft | 499 kts | 46° |
| 2026-04-27 10:22 | 41.99713 | 61.26951 | 35161 ft | 499 kts | 46° |
| 2026-04-27 10:22 | 42.04346 | 61.33845 | 35169 ft | 499 kts | 46° |
| 2026-04-27 10:23 | 42.09018 | 61.40770 | 35165 ft | 500 kts | 46° |
| 2026-04-27 10:23 | 42.13667 | 61.47659 | 35166 ft | 500 kts | 46° |
| 2026-04-27 10:24 | 42.18341 | 61.54616 | 35162 ft | 501 kts | 46° |
| 2026-04-27 10:24 | 42.23013 | 61.61598 | 35165 ft | 501 kts | 46° |
| 2026-04-27 10:25 | 42.27680 | 61.68593 | 35165 ft | 502 kts | 46° |
| 2026-04-27 10:25 | 42.32349 | 61.75605 | 35172 ft | 502 kts | 46° |
| 2026-04-27 10:26 | 42.37018 | 61.82635 | 35174 ft | 502 kts | 46° |
| 2026-04-27 10:26 | 42.41680 | 61.89670 | 35172 ft | 503 kts | 46° |
| 2026-04-27 10:27 | 42.46344 | 61.96725 | 35177 ft | 503 kts | 46° |
| 2026-04-27 10:27 | 42.50886 | 62.03612 | 35177 ft | 503 kts | 46° |
| 2026-04-27 10:28 | 42.55543 | 62.10691 | 35180 ft | 503 kts | 46° |
| 2026-04-27 10:28 | 42.60203 | 62.17793 | 35179 ft | 504 kts | 46° |
| 2026-04-27 10:29 | 42.64860 | 62.24906 | 35182 ft | 504 kts | 46° |
| 2026-04-27 10:29 | 42.69512 | 62.32030 | 35196 ft | 504 kts | 46° |
| 2026-04-27 10:30 | 42.74171 | 62.39182 | 35184 ft | 505 kts | 46° |
| 2026-04-27 10:30 | 42.78832 | 62.46355 | 35190 ft | 506 kts | 46° |
| 2026-04-27 10:31 | 42.83494 | 62.53549 | 35191 ft | 507 kts | 46° |
| 2026-04-27 10:31 | 42.88156 | 62.60761 | 35189 ft | 507 kts | 47° |
| 2026-04-27 10:32 | 42.92814 | 62.67988 | 35189 ft | 507 kts | 47° |
| 2026-04-27 10:32 | 42.97470 | 62.75232 | 35194 ft | 508 kts | 47° |
| 2026-04-27 10:33 | 43.02107 | 62.82467 | 35203 ft | 508 kts | 47° |
| 2026-04-27 10:33 | 43.06764 | 62.89742 | 35197 ft | 508 kts | 47° |
| 2026-04-27 10:34 | 43.11407 | 62.97035 | 35201 ft | 508 kts | 47° |
| 2026-04-27 10:34 | 43.15920 | 63.04158 | 35199 ft | 508 kts | 47° |
| 2026-04-27 10:35 | 43.20548 | 63.11484 | 35204 ft | 508 kts | 47° |
| 2026-04-27 10:35 | 43.25165 | 63.18815 | 35204 ft | 508 kts | 47° |
| 2026-04-27 10:36 | 43.29780 | 63.26165 | 35203 ft | 508 kts | 47° |
| 2026-04-27 10:36 | 43.34394 | 63.33515 | 35206 ft | 508 kts | 47° |
| 2026-04-27 10:37 | 43.39008 | 63.40876 | 35219 ft | 508 kts | 47° |
| 2026-04-27 10:37 | 43.43615 | 63.48253 | 35204 ft | 508 kts | 47° |
| 2026-04-27 10:38 | 43.48208 | 63.55644 | 35207 ft | 508 kts | 47° |
| 2026-04-27 10:38 | 43.52793 | 63.63029 | 35212 ft | 507 kts | 47° |
| 2026-04-27 10:39 | 43.57369 | 63.70448 | 35206 ft | 508 kts | 47° |
| 2026-04-27 10:39 | 43.62010 | 63.77785 | 35215 ft | 506 kts | 42° |
| 2026-04-27 10:40 | 43.67310 | 63.84025 | 35211 ft | 503 kts | 31° |
| 2026-04-27 10:40 | 43.73176 | 63.89248 | 35230 ft | 501 kts | 28° |
| 2026-04-27 10:41 | 43.79077 | 63.94381 | 35221 ft | 501 kts | 28° |
| 2026-04-27 10:41 | 43.84957 | 63.99582 | 35222 ft | 501 kts | 28° |
| 2026-04-27 10:42 | 43.90664 | 64.04693 | 35223 ft | 501 kts | 29° |
| 2026-04-27 10:42 | 43.96509 | 64.09950 | 35248 ft | 501 kts | 29° |
| 2026-04-27 10:43 | 44.02332 | 64.15195 | 35233 ft | 501 kts | 29° |
| 2026-04-27 10:43 | 44.08184 | 64.20477 | 35231 ft | 501 kts | 29° |
| 2026-04-27 10:44 | 44.14022 | 64.25759 | 35234 ft | 501 kts | 29° |
| 2026-04-27 10:44 | 44.19864 | 64.31057 | 35239 ft | 501 kts | 29° |
| 2026-04-27 10:45 | 44.25703 | 64.36367 | 35242 ft | 501 kts | 29° |
| 2026-04-27 10:45 | 44.31544 | 64.41694 | 35243 ft | 502 kts | 29° |
| 2026-04-27 10:46 | 44.37391 | 64.47044 | 35246 ft | 502 kts | 29° |
| 2026-04-27 10:46 | 44.43241 | 64.52402 | 35238 ft | 503 kts | 29° |
| 2026-04-27 10:47 | 44.49100 | 64.57751 | 35250 ft | 503 kts | 29° |
| 2026-04-27 10:47 | 44.54966 | 64.63114 | 35243 ft | 503 kts | 29° |
| 2026-04-27 10:48 | 44.60772 | 64.68450 | 35252 ft | 502 kts | 29° |
| 2026-04-27 10:48 | 44.66614 | 64.73837 | 35260 ft | 502 kts | 29° |
| 2026-04-27 10:49 | 44.72455 | 64.79240 | 35254 ft | 502 kts | 29° |
| 2026-04-27 10:49 | 44.78282 | 64.84646 | 35262 ft | 501 kts | 29° |
| 2026-04-27 10:50 | 44.84102 | 64.90046 | 35264 ft | 501 kts | 29° |
| 2026-04-27 10:50 | 44.89918 | 64.95439 | 35264 ft | 500 kts | 29° |
| 2026-04-27 10:51 | 44.95590 | 65.00712 | 35269 ft | 500 kts | 29° |
| 2026-04-27 10:51 | 45.01372 | 65.06109 | 35288 ft | 500 kts | 30° |
| 2026-04-27 10:52 | 45.07167 | 65.11546 | 35286 ft | 499 kts | 30° |
| 2026-04-27 10:52 | 45.12947 | 65.16989 | 35283 ft | 499 kts | 30° |
| 2026-04-27 10:53 | 45.21615 | 65.25176 | 35280 ft | 499 kts | 30° |
| 2026-04-27 10:54 | 45.27384 | 65.30640 | 35287 ft | 498 kts | 30° |
| 2026-04-27 10:54 | 45.33148 | 65.36113 | 35288 ft | 498 kts | 30° |
| 2026-04-27 10:55 | 45.38901 | 65.41590 | 35294 ft | 498 kts | 30° |
| 2026-04-27 10:55 | 45.44661 | 65.47087 | 35287 ft | 498 kts | 30° |
| 2026-04-27 10:56 | 45.50414 | 65.52591 | 35296 ft | 498 kts | 30° |
| 2026-04-27 10:56 | 45.56157 | 65.58100 | 35312 ft | 498 kts | 30° |
| 2026-04-27 10:57 | 45.61900 | 65.63623 | 35291 ft | 498 kts | 30° |
| 2026-04-27 10:57 | 45.67642 | 65.69159 | 35296 ft | 498 kts | 30° |
| 2026-04-27 10:58 | 45.72404 | 65.73760 | 35306 ft | 497 kts | 30° |
| 2026-04-27 10:58 | 45.78138 | 65.79315 | 35299 ft | 498 kts | 30° |
| 2026-04-27 10:59 | 45.83874 | 65.84888 | 35311 ft | 498 kts | 30° |
| 2026-04-27 10:59 | 45.89605 | 65.90470 | 35306 ft | 498 kts | 30° |
| 2026-04-27 11:00 | 45.98194 | 65.98871 | 35327 ft | 498 kts | 30° |
| 2026-04-27 11:00 | 46.03773 | 66.04335 | 35320 ft | 498 kts | 30° |
| 2026-04-27 11:01 | 46.09503 | 66.09947 | 35332 ft | 498 kts | 30° |
| 2026-04-27 11:01 | 46.15229 | 66.15578 | 35323 ft | 498 kts | 30° |
| 2026-04-27 11:02 | 46.20944 | 66.21223 | 35319 ft | 498 kts | 30° |
| 2026-04-27 11:02 | 46.26660 | 66.26887 | 35319 ft | 498 kts | 30° |
| 2026-04-27 11:03 | 46.32365 | 66.32555 | 35327 ft | 498 kts | 30° |
| 2026-04-27 11:03 | 46.38071 | 66.38239 | 35344 ft | 498 kts | 30° |
| 2026-04-27 11:04 | 46.43771 | 66.43937 | 35323 ft | 497 kts | 30° |
| 2026-04-27 11:04 | 46.49356 | 66.49532 | 35331 ft | 497 kts | 30° |
| 2026-04-27 11:05 | 46.55042 | 66.55228 | 35327 ft | 497 kts | 30° |
| 2026-04-27 11:05 | 46.60727 | 66.60934 | 35334 ft | 496 kts | 30° |
| 2026-04-27 11:06 | 46.66400 | 66.66657 | 35347 ft | 496 kts | 30° |
| 2026-04-27 11:06 | 46.72071 | 66.72398 | 35343 ft | 496 kts | 30° |
| 2026-04-27 11:07 | 46.77732 | 66.78145 | 35335 ft | 496 kts | 31° |
| 2026-04-27 11:07 | 46.83329 | 66.83846 | 35003 ft | 489 kts | 31° |
| 2026-04-27 11:08 | 46.86103 | 66.86679 | 34541 ft | 483 kts | 31° |
| 2026-04-27 11:08 | 46.88837 | 66.89476 | 34155 ft | 476 kts | 30° |
| 2026-04-27 11:08 | 46.91526 | 66.92228 | 33721 ft | 469 kts | 30° |
| 2026-04-27 11:08 | 46.94192 | 66.94953 | 33200 ft | 465 kts | 30° |
| 2026-04-27 11:09 | 46.96831 | 66.97650 | 32677 ft | 461 kts | 30° |
| 2026-04-27 11:09 | 46.99323 | 67.00185 | 32203 ft | 456 kts | 30° |
| 2026-04-27 11:09 | 47.01906 | 67.02815 | 31734 ft | 452 kts | 30° |
| 2026-04-27 11:09 | 47.04472 | 67.05433 | 31271 ft | 447 kts | 30° |
| 2026-04-27 11:10 | 47.07008 | 67.08029 | 30831 ft | 443 kts | 30° |
| 2026-04-27 11:10 | 47.09522 | 67.10607 | 30384 ft | 438 kts | 30° |
| 2026-04-27 11:10 | 47.12009 | 67.13156 | 29881 ft | 434 kts | 30° |
| 2026-04-27 11:10 | 47.14472 | 67.15685 | 29326 ft | 431 kts | 31° |
| 2026-04-27 11:11 | 47.16916 | 67.18205 | 28781 ft | 427 kts | 31° |
| 2026-04-27 11:11 | 47.19339 | 67.20710 | 28234 ft | 424 kts | 31° |
| 2026-04-27 11:11 | 47.21742 | 67.23201 | 27723 ft | 421 kts | 31° |
| 2026-04-27 11:11 | 47.24122 | 67.25674 | 27238 ft | 417 kts | 31° |
| 2026-04-27 11:12 | 47.26480 | 67.28128 | 26753 ft | 414 kts | 31° |
| 2026-04-27 11:12 | 47.28824 | 67.30571 | 26267 ft | 411 kts | 32° |
| 2026-04-27 11:12 | 47.31145 | 67.32991 | 25781 ft | 408 kts | 32° |
| 2026-04-27 11:12 | 47.33455 | 67.35404 | 25308 ft | 405 kts | 32° |
| 2026-04-27 11:13 | 47.35747 | 67.37800 | 24846 ft | 402 kts | 32° |
| 2026-04-27 11:13 | 47.38021 | 67.40180 | 24401 ft | 400 kts | 32° |
| 2026-04-27 11:13 | 47.40280 | 67.42547 | 23973 ft | 397 kts | 32° |
| 2026-04-27 11:13 | 47.42525 | 67.44902 | 23494 ft | 394 kts | 32° |
| 2026-04-27 11:14 | 47.44723 | 67.47210 | 23010 ft | 392 kts | 32° |
| 2026-04-27 11:14 | 47.46964 | 67.49565 | 22517 ft | 389 kts | 32° |
| 2026-04-27 11:14 | 47.49159 | 67.51876 | 22037 ft | 386 kts | 32° |
| 2026-04-27 11:14 | 47.51337 | 67.54171 | 21577 ft | 384 kts | 32° |
| 2026-04-27 11:15 | 47.53479 | 67.56429 | 21105 ft | 382 kts | 32° |
| 2026-04-27 11:15 | 47.55664 | 67.58736 | 20633 ft | 380 kts | 32° |
| 2026-04-27 11:15 | 47.57777 | 67.60970 | 20196 ft | 377 kts | 33° |
| 2026-04-27 11:15 | 47.59929 | 67.63248 | 19758 ft | 375 kts | 33° |
| 2026-04-27 11:16 | 47.62045 | 67.65490 | 19332 ft | 372 kts | 33° |
| 2026-04-27 11:16 | 47.64143 | 67.67719 | 18927 ft | 370 kts | 33° |
| 2026-04-27 11:16 | 47.66200 | 67.69906 | 18526 ft | 367 kts | 33° |
| 2026-04-27 11:16 | 47.68268 | 67.72103 | 18057 ft | 365 kts | 33° |
| 2026-04-27 11:17 | 47.70326 | 67.74290 | 17594 ft | 363 kts | 33° |
| 2026-04-27 11:17 | 47.72371 | 67.76463 | 17134 ft | 360 kts | 33° |
| 2026-04-27 11:17 | 47.74445 | 67.78620 | 16679 ft | 358 kts | 32° |
| 2026-04-27 11:17 | 47.76462 | 67.80686 | 16244 ft | 356 kts | 32° |
| 2026-04-27 11:18 | 47.78494 | 67.82763 | 15811 ft | 354 kts | 32° |
| 2026-04-27 11:18 | 47.80514 | 67.84832 | 15397 ft | 351 kts | 32° |
| 2026-04-27 11:18 | 47.82531 | 67.86905 | 15235 ft | 355 kts | 32° |
| 2026-04-27 11:18 | 47.84561 | 67.88996 | 15219 ft | 354 kts | 32° |
| 2026-04-27 11:19 | 47.86578 | 67.91080 | 15211 ft | 351 kts | 32° |
| 2026-04-27 11:19 | 47.88580 | 67.93152 | 15198 ft | 350 kts | 32° |
| 2026-04-27 11:19 | 47.90578 | 67.95222 | 15217 ft | 350 kts | 32° |
| 2026-04-27 11:19 | 47.92575 | 67.97293 | 15220 ft | 351 kts | 32° |
| 2026-04-27 11:20 | 47.94583 | 67.99378 | 15212 ft | 352 kts | 32° |
| 2026-04-27 11:20 | 47.96495 | 68.01366 | 15221 ft | 352 kts | 32° |
| 2026-04-27 11:20 | 47.98505 | 68.03457 | 15215 ft | 353 kts | 32° |
| 2026-04-27 11:20 | 48.00510 | 68.05547 | 15211 ft | 353 kts | 32° |
| 2026-04-27 11:21 | 48.02524 | 68.07647 | 15219 ft | 353 kts | 32° |
| 2026-04-27 11:21 | 48.04540 | 68.09753 | 15218 ft | 353 kts | 32° |
| 2026-04-27 11:21 | 48.06552 | 68.11854 | 15217 ft | 353 kts | 32° |
| 2026-04-27 11:21 | 48.08562 | 68.13958 | 15222 ft | 353 kts | 32° |
| 2026-04-27 11:22 | 48.10571 | 68.16061 | 15218 ft | 352 kts | 33° |
| 2026-04-27 11:22 | 48.12578 | 68.18165 | 15225 ft | 352 kts | 32° |
| 2026-04-27 11:22 | 48.14580 | 68.20266 | 15215 ft | 351 kts | 32° |
| 2026-04-27 11:22 | 48.16581 | 68.22369 | 15213 ft | 351 kts | 32° |
| 2026-04-27 11:23 | 48.18575 | 68.24465 | 15226 ft | 350 kts | 32° |
| 2026-04-27 11:23 | 48.20565 | 68.26562 | 15224 ft | 350 kts | 32° |
| 2026-04-27 11:23 | 48.22556 | 68.28661 | 15215 ft | 349 kts | 33° |
| 2026-04-27 11:23 | 48.24538 | 68.30756 | 15231 ft | 349 kts | 32° |
| 2026-04-27 11:24 | 48.26524 | 68.32853 | 15225 ft | 349 kts | 32° |
| 2026-04-27 11:24 | 48.28505 | 68.34945 | 15224 ft | 348 kts | 32° |
| 2026-04-27 11:24 | 48.30492 | 68.37041 | 15233 ft | 349 kts | 32° |
| 2026-04-27 11:24 | 48.32480 | 68.39116 | 15232 ft | 349 kts | 32° |
| 2026-04-27 11:25 | 48.34491 | 68.41157 | 15224 ft | 349 kts | 31° |
| 2026-04-27 11:25 | 48.36505 | 68.43191 | 15225 ft | 349 kts | 31° |
| 2026-04-27 11:25 | 48.38520 | 68.45232 | 15234 ft | 349 kts | 31° |
| 2026-04-27 11:25 | 48.40533 | 68.47278 | 15226 ft | 349 kts | 32° |
| 2026-04-27 11:26 | 48.42518 | 68.49303 | 15244 ft | 349 kts | 32° |
| 2026-04-27 11:26 | 48.44531 | 68.51363 | 15224 ft | 350 kts | 32° |
| 2026-04-27 11:26 | 48.46542 | 68.53425 | 15225 ft | 350 kts | 32° |
| 2026-04-27 11:26 | 48.48576 | 68.55514 | 15233 ft | 349 kts | 32° |
| 2026-04-27 11:27 | 48.50560 | 68.57549 | 15236 ft | 349 kts | 32° |
| 2026-04-27 11:27 | 48.52566 | 68.59607 | 15229 ft | 349 kts | 32° |
| 2026-04-27 11:27 | 48.54570 | 68.61674 | 15231 ft | 349 kts | 32° |
| 2026-04-27 11:27 | 48.56557 | 68.63784 | 15232 ft | 349 kts | 33° |
| 2026-04-27 11:28 | 48.58534 | 68.65911 | 15232 ft | 349 kts | 33° |
| 2026-04-27 11:28 | 48.60513 | 68.68051 | 15236 ft | 349 kts | 33° |
| 2026-04-27 11:28 | 48.62486 | 68.70186 | 15239 ft | 349 kts | 33° |
| 2026-04-27 11:28 | 48.64462 | 68.72327 | 15239 ft | 349 kts | 33° |
| 2026-04-27 11:29 | 48.66434 | 68.74464 | 15240 ft | 349 kts | 33° |
| 2026-04-27 11:29 | 48.68409 | 68.76605 | 15235 ft | 349 kts | 33° |
| 2026-04-27 11:29 | 48.70382 | 68.78745 | 15233 ft | 349 kts | 33° |
| 2026-04-27 11:29 | 48.72353 | 68.80885 | 15239 ft | 349 kts | 33° |
| 2026-04-27 11:30 | 48.74324 | 68.83026 | 15240 ft | 348 kts | 33° |
| 2026-04-27 11:30 | 48.76293 | 68.85166 | 15241 ft | 348 kts | 33° |
| 2026-04-27 11:30 | 48.78260 | 68.87308 | 15242 ft | 348 kts | 33° |
| 2026-04-27 11:30 | 48.80226 | 68.89450 | 15243 ft | 348 kts | 33° |
| 2026-04-27 11:31 | 48.82191 | 68.91593 | 15242 ft | 348 kts | 33° |
| 2026-04-27 11:31 | 48.84157 | 68.93740 | 15241 ft | 348 kts | 33° |
| 2026-04-27 11:31 | 48.86121 | 68.95886 | 15243 ft | 348 kts | 33° |
| 2026-04-27 11:31 | 48.88089 | 68.98039 | 15250 ft | 348 kts | 33° |
| 2026-04-27 11:32 | 48.89988 | 69.00118 | 15249 ft | 348 kts | 33° |
| 2026-04-27 11:32 | 48.91930 | 69.02246 | 15245 ft | 348 kts | 33° |
| 2026-04-27 11:32 | 48.93895 | 69.04402 | 15243 ft | 348 kts | 33° |
| 2026-04-27 11:32 | 48.95860 | 69.06560 | 15247 ft | 348 kts | 33° |
| 2026-04-27 11:33 | 48.97824 | 69.08720 | 15247 ft | 348 kts | 33° |
| 2026-04-27 11:33 | 48.99787 | 69.10880 | 15247 ft | 348 kts | 33° |
| 2026-04-27 11:33 | 49.01745 | 69.13037 | 15248 ft | 348 kts | 33° |
| 2026-04-27 11:33 | 49.03705 | 69.15199 | 15243 ft | 348 kts | 33° |
| 2026-04-27 11:34 | 49.05666 | 69.17364 | 15244 ft | 348 kts | 33° |
| 2026-04-27 11:34 | 49.07628 | 69.19532 | 15251 ft | 348 kts | 33° |
| 2026-04-27 11:34 | 49.09590 | 69.21703 | 15252 ft | 348 kts | 33° |
| 2026-04-27 11:34 | 49.11551 | 69.23875 | 15249 ft | 348 kts | 33° |
| 2026-04-27 11:35 | 49.13509 | 69.26046 | 15254 ft | 348 kts | 33° |
| 2026-04-27 11:35 | 49.15466 | 69.28219 | 15249 ft | 348 kts | 33° |
| 2026-04-27 11:35 | 49.17426 | 69.30398 | 15248 ft | 348 kts | 33° |
| 2026-04-27 11:35 | 49.19381 | 69.32573 | 15248 ft | 348 kts | 33° |
| 2026-04-27 11:36 | 49.21333 | 69.34751 | 15252 ft | 348 kts | 33° |
| 2026-04-27 11:36 | 49.23290 | 69.36933 | 15248 ft | 347 kts | 33° |
| 2026-04-27 11:36 | 49.25242 | 69.39109 | 15247 ft | 347 kts | 33° |
| 2026-04-27 11:36 | 49.27198 | 69.41289 | 15247 ft | 347 kts | 33° |
| 2026-04-27 11:37 | 49.29153 | 69.43470 | 15251 ft | 347 kts | 33° |
| 2026-04-27 11:37 | 49.31080 | 69.45618 | 15208 ft | 338 kts | 33° |
| 2026-04-27 11:37 | 49.32954 | 69.47711 | 15105 ft | 327 kts | 33° |
| 2026-04-27 11:37 | 49.34759 | 69.49730 | 15044 ft | 316 kts | 33° |
| 2026-04-27 11:38 | 49.36504 | 69.51684 | 14922 ft | 305 kts | 33° |
| 2026-04-27 11:38 | 49.38194 | 69.53579 | 14752 ft | 298 kts | 33° |
| 2026-04-27 11:38 | 49.39856 | 69.55444 | 14473 ft | 295 kts | 33° |
| 2026-04-27 11:38 | 49.41509 | 69.57299 | 14135 ft | 294 kts | 33° |
| 2026-04-27 11:39 | 49.43156 | 69.59151 | 13760 ft | 293 kts | 33° |
| 2026-04-27 11:39 | 49.44798 | 69.61000 | 13396 ft | 292 kts | 33° |
| 2026-04-27 11:39 | 49.46434 | 69.62845 | 13052 ft | 290 kts | 33° |
| 2026-04-27 11:39 | 49.48058 | 69.64678 | 12710 ft | 289 kts | 33° |
| 2026-04-27 11:40 | 49.49674 | 69.66503 | 12369 ft | 288 kts | 34° |
| 2026-04-27 11:40 | 49.51284 | 69.68324 | 12029 ft | 287 kts | 34° |
| 2026-04-27 11:40 | 49.52886 | 69.70137 | 11706 ft | 285 kts | 34° |
| 2026-04-27 11:40 | 49.54482 | 69.71945 | 11386 ft | 284 kts | 34° |
| 2026-04-27 11:41 | 49.56072 | 69.73747 | 11046 ft | 284 kts | 34° |
| 2026-04-27 11:41 | 49.57122 | 69.74938 | 10831 ft | 283 kts | 34° |
| 2026-04-27 11:41 | 49.59239 | 69.77342 | 10418 ft | 281 kts | 34° |
| 2026-04-27 11:41 | 49.60811 | 69.79129 | 10102 ft | 280 kts | 34° |
| 2026-04-27 11:42 | 49.62372 | 69.80904 | 9781 ft | 278 kts | 34° |
| 2026-04-27 11:42 | 49.63377 | 69.82048 | 9608 ft | 276 kts | 34° |
| 2026-04-27 11:42 | 49.64898 | 69.83781 | 9425 ft | 268 kts | 34° |
| 2026-04-27 11:42 | 49.66381 | 69.85472 | 9211 ft | 263 kts | 34° |
| 2026-04-27 11:43 | 49.67832 | 69.87127 | 9051 ft | 255 kts | 34° |
| 2026-04-27 11:43 | 49.69250 | 69.88745 | 9001 ft | 254 kts | 34° |
| 2026-04-27 11:43 | 49.71166 | 69.90932 | 9007 ft | 263 kts | 34° |
| 2026-04-27 11:43 | 49.72640 | 69.92619 | 9007 ft | 264 kts | 34° |
| 2026-04-27 11:44 | 49.73634 | 69.93756 | 8997 ft | 262 kts | 34° |
| 2026-04-27 11:44 | 49.75093 | 69.95428 | 8984 ft | 260 kts | 34° |
| 2026-04-27 11:44 | 49.76537 | 69.97084 | 8982 ft | 257 kts | 34° |
| 2026-04-27 11:44 | 49.77970 | 69.98727 | 8992 ft | 256 kts | 34° |
| 2026-04-27 11:45 | 49.79337 | 70.00296 | 8994 ft | 256 kts | 34° |
| 2026-04-27 11:45 | 49.80770 | 70.01942 | 8999 ft | 257 kts | 34° |
| 2026-04-27 11:45 | 49.82214 | 70.03601 | 9003 ft | 259 kts | 34° |
| 2026-04-27 11:45 | 49.83663 | 70.05270 | 9002 ft | 261 kts | 34° |
| 2026-04-27 11:46 | 49.85065 | 70.06885 | 9000 ft | 262 kts | 34° |
| 2026-04-27 11:46 | 49.86534 | 70.08579 | 9003 ft | 264 kts | 34° |
| 2026-04-27 11:46 | 49.88008 | 70.10279 | 9003 ft | 265 kts | 34° |
| 2026-04-27 11:46 | 49.89486 | 70.11985 | 8999 ft | 265 kts | 34° |
| 2026-04-27 11:47 | 49.90959 | 70.13689 | 8998 ft | 264 kts | 35° |
| 2026-04-27 11:47 | 49.92433 | 70.15393 | 8994 ft | 263 kts | 34° |
| 2026-04-27 11:47 | 49.93898 | 70.17090 | 8994 ft | 263 kts | 34° |
| 2026-04-27 11:47 | 49.95360 | 70.18786 | 8991 ft | 261 kts | 34° |
| 2026-04-27 11:48 | 49.96813 | 70.20473 | 8997 ft | 261 kts | 35° |
| 2026-04-27 11:48 | 49.98244 | 70.22136 | 8993 ft | 260 kts | 35° |
| 2026-04-27 11:48 | 49.99693 | 70.23818 | 8991 ft | 260 kts | 34° |
| 2026-04-27 11:48 | 50.01131 | 70.25488 | 8994 ft | 259 kts | 34° |
| 2026-04-27 11:49 | 50.02579 | 70.27167 | 8997 ft | 259 kts | 34° |
| 2026-04-27 11:49 | 50.04025 | 70.28845 | 9000 ft | 259 kts | 34° |
| 2026-04-27 11:49 | 50.05470 | 70.30529 | 9004 ft | 260 kts | 35° |
| 2026-04-27 11:49 | 50.06919 | 70.32220 | 9005 ft | 261 kts | 35° |
| 2026-04-27 11:50 | 50.08373 | 70.33921 | 9001 ft | 262 kts | 35° |
| 2026-04-27 11:50 | 50.09827 | 70.35626 | 9003 ft | 262 kts | 35° |
| 2026-04-27 11:50 | 50.11287 | 70.37338 | 8998 ft | 263 kts | 35° |
| 2026-04-27 11:50 | 50.12750 | 70.39053 | 8997 ft | 263 kts | 35° |
| 2026-04-27 11:51 | 50.14213 | 70.40768 | 8993 ft | 263 kts | 34° |
| 2026-04-27 11:51 | 50.15676 | 70.42481 | 8993 ft | 263 kts | 34° |
| 2026-04-27 11:51 | 50.18601 | 70.45907 | 8993 ft | 263 kts | 34° |
| 2026-04-27 11:52 | 50.20062 | 70.47615 | 8999 ft | 262 kts | 35° |
| 2026-04-27 11:52 | 50.21522 | 70.49325 | 8997 ft | 262 kts | 34° |
| 2026-04-27 11:52 | 50.22982 | 70.51039 | 8993 ft | 262 kts | 34° |
| 2026-04-27 11:52 | 50.24437 | 70.52749 | 8975 ft | 262 kts | 35° |
| 2026-04-27 11:53 | 50.25887 | 70.54456 | 8819 ft | 260 kts | 34° |
| 2026-04-27 11:53 | 50.27326 | 70.56153 | 8586 ft | 259 kts | 35° |
| 2026-04-27 11:53 | 50.28761 | 70.57847 | 8349 ft | 258 kts | 35° |
| 2026-04-27 11:53 | 50.30187 | 70.59534 | 8149 ft | 256 kts | 34° |
| 2026-04-27 11:54 | 50.31605 | 70.61208 | 7929 ft | 254 kts | 35° |
| 2026-04-27 11:54 | 50.33014 | 70.62872 | 7725 ft | 253 kts | 35° |
| 2026-04-27 11:54 | 50.34414 | 70.64525 | 7520 ft | 252 kts | 35° |
| 2026-04-27 11:54 | 50.35809 | 70.66170 | 7304 ft | 250 kts | 35° |
| 2026-04-27 11:55 | 50.37194 | 70.67808 | 7123 ft | 248 kts | 36° |
| 2026-04-27 11:55 | 50.38553 | 70.69411 | 7061 ft | 242 kts | 35° |
| 2026-04-27 11:55 | 50.39906 | 70.71007 | 7009 ft | 244 kts | 35° |
| 2026-04-27 11:55 | 50.41271 | 70.72620 | 7013 ft | 248 kts | 36° |
| 2026-04-27 11:56 | 50.42655 | 70.74259 | 7007 ft | 249 kts | 35° |
| 2026-04-27 11:56 | 50.44037 | 70.75898 | 7000 ft | 249 kts | 35° |
| 2026-04-27 11:56 | 50.45399 | 70.77516 | 6995 ft | 249 kts | 35° |
| 2026-04-27 11:56 | 50.46777 | 70.79153 | 6990 ft | 248 kts | 35° |
| 2026-04-27 11:57 | 50.48150 | 70.80787 | 6993 ft | 247 kts | 36° |
| 2026-04-27 11:57 | 50.49520 | 70.82419 | 6997 ft | 247 kts | 35° |
| 2026-04-27 11:57 | 50.50887 | 70.84049 | 6994 ft | 247 kts | 36° |
| 2026-04-27 11:57 | 50.52252 | 70.85677 | 7000 ft | 246 kts | 35° |
| 2026-04-27 11:58 | 50.53619 | 70.87310 | 6991 ft | 247 kts | 36° |
| 2026-04-27 11:58 | 50.54988 | 70.88945 | 6996 ft | 248 kts | 36° |
| 2026-04-27 11:58 | 50.56360 | 70.90587 | 6997 ft | 248 kts | 36° |
| 2026-04-27 11:58 | 50.57735 | 70.92233 | 6997 ft | 249 kts | 36° |
| 2026-04-27 11:59 | 50.59094 | 70.93863 | 7001 ft | 249 kts | 35° |
| 2026-04-27 11:59 | 50.60415 | 70.95446 | 6995 ft | 249 kts | 36° |
| 2026-04-27 11:59 | 50.61811 | 70.97122 | 6950 ft | 249 kts | 36° |
| 2026-04-27 11:59 | 50.63188 | 70.98775 | 6862 ft | 248 kts | 36° |
| 2026-04-27 12:00 | 50.64485 | 71.00336 | 6793 ft | 247 kts | 36° |
| 2026-04-27 12:00 | 50.65850 | 71.01979 | 6709 ft | 246 kts | 35° |
| 2026-04-27 12:00 | 50.67231 | 71.03643 | 6608 ft | 246 kts | 36° |
| 2026-04-27 12:00 | 50.68593 | 71.05286 | 6508 ft | 246 kts | 36° |
| 2026-04-27 12:01 | 50.69933 | 71.06904 | 6407 ft | 247 kts | 36° |
| 2026-04-27 12:01 | 50.71294 | 71.08548 | 6342 ft | 245 kts | 35° |
| 2026-04-27 12:01 | 50.72644 | 71.10177 | 6307 ft | 243 kts | 35° |
| 2026-04-27 12:01 | 50.73976 | 71.11784 | 6267 ft | 240 kts | 35° |
| 2026-04-27 12:02 | 50.75299 | 71.13378 | 6221 ft | 238 kts | 35° |
| 2026-04-27 12:02 | 50.76606 | 71.14952 | 6174 ft | 234 kts | 35° |
| 2026-04-27 12:02 | 50.77894 | 71.16491 | 6141 ft | 231 kts | 34° |
| 2026-04-27 12:02 | 50.79165 | 71.18007 | 6096 ft | 227 kts | 34° |
| 2026-04-27 12:03 | 50.80416 | 71.19503 | 6024 ft | 225 kts | 34° |
| 2026-04-27 12:03 | 50.81659 | 71.20992 | 5922 ft | 224 kts | 35° |
| 2026-04-27 12:03 | 50.82900 | 71.22482 | 5808 ft | 224 kts | 35° |
| 2026-04-27 12:03 | 50.84140 | 71.23971 | 5729 ft | 224 kts | 35° |
| 2026-04-27 12:04 | 50.85378 | 71.25460 | 5639 ft | 223 kts | 35° |
| 2026-04-27 12:04 | 50.86605 | 71.26937 | 5545 ft | 223 kts | 34° |
| 2026-04-27 12:04 | 50.87846 | 71.28431 | 5429 ft | 223 kts | 35° |
| 2026-04-27 12:04 | 50.89080 | 71.29919 | 5324 ft | 223 kts | 35° |
| 2026-04-27 12:05 | 50.90310 | 71.31404 | 5227 ft | 222 kts | 35° |
| 2026-04-27 12:05 | 50.91538 | 71.32889 | 5140 ft | 222 kts | 35° |
| 2026-04-27 12:05 | 50.92765 | 71.34374 | 5040 ft | 222 kts | 34° |
| 2026-04-27 12:05 | 50.93988 | 71.35853 | 4952 ft | 221 kts | 34° |
| 2026-04-27 12:06 | 50.95212 | 71.37331 | 4824 ft | 221 kts | 34° |
| 2026-04-27 12:06 | 50.96437 | 71.38812 | 4731 ft | 221 kts | 35° |
| 2026-04-27 12:06 | 50.97656 | 71.40285 | 4664 ft | 220 kts | 35° |
| 2026-04-27 12:06 | 50.98875 | 71.41757 | 4585 ft | 220 kts | 35° |
| 2026-04-27 12:07 | 50.99973 | 71.43427 | 4377 ft | 222 kts | 52° |
| 2026-04-27 12:07 | 51.00713 | 71.45561 | 4224 ft | 223 kts | 65° |
| 2026-04-27 12:07 | 51.01237 | 71.47867 | 4169 ft | 221 kts | 69° |
| 2026-04-27 12:07 | 51.01719 | 71.50157 | 4140 ft | 216 kts | 69° |
| 2026-04-27 12:08 | 51.02185 | 71.52386 | 4155 ft | 209 kts | 68° |
| 2026-04-27 12:08 | 51.02640 | 71.54547 | 4057 ft | 204 kts | 69° |
| 2026-04-27 12:08 | 51.03085 | 71.56647 | 3984 ft | 198 kts | 69° |
| 2026-04-27 12:08 | 51.03519 | 71.58688 | 3894 ft | 192 kts | 69° |
| 2026-04-27 12:09 | 51.03945 | 71.60679 | 3828 ft | 190 kts | 69° |
| 2026-04-27 12:09 | 51.04370 | 71.62670 | 3807 ft | 190 kts | 68° |
| 2026-04-27 12:09 | 51.04797 | 71.64667 | 3810 ft | 192 kts | 68° |
| 2026-04-27 12:09 | 51.05227 | 71.66681 | 3812 ft | 193 kts | 69° |
| 2026-04-27 12:10 | 51.05658 | 71.68708 | 3811 ft | 194 kts | 68° |
| 2026-04-27 12:10 | 51.06093 | 71.70745 | 3803 ft | 195 kts | 68° |
| 2026-04-27 12:10 | 51.06531 | 71.72789 | 3797 ft | 195 kts | 67° |
| 2026-04-27 12:10 | 51.06961 | 71.74797 | 3801 ft | 194 kts | 68° |
| 2026-04-27 12:11 | 51.07395 | 71.76823 | 3789 ft | 193 kts | 69° |
| 2026-04-27 12:11 | 51.07823 | 71.78823 | 3786 ft | 190 kts | 68° |
| 2026-04-27 12:11 | 51.08249 | 71.80808 | 3793 ft | 191 kts | 68° |
| 2026-04-27 12:11 | 51.08687 | 71.82815 | 3799 ft | 192 kts | 64° |
| 2026-04-27 12:12 | 51.09360 | 71.84625 | 3803 ft | 190 kts | 46° |
| 2026-04-27 12:12 | 51.10357 | 71.85983 | 3798 ft | 189 kts | 28° |
| 2026-04-27 12:12 | 51.11565 | 71.86767 | 3800 ft | 188 kts | 9° |
| 2026-04-27 12:12 | 51.12850 | 71.86919 | 3793 ft | 185 kts | 352° |
| 2026-04-27 12:13 | 51.14087 | 71.86418 | 3799 ft | 184 kts | 333° |
| 2026-04-27 12:13 | 51.15187 | 71.85413 | 3803 ft | 182 kts | 321° |
| 2026-04-27 12:13 | 51.16121 | 71.84067 | 3788 ft | 180 kts | 313° |
| 2026-04-27 12:13 | 51.17001 | 71.82651 | 3793 ft | 180 kts | 313° |
| 2026-04-27 12:14 | 51.17886 | 71.81228 | 3791 ft | 181 kts | 313° |
| 2026-04-27 12:14 | 51.18731 | 71.79743 | 3798 ft | 181 kts | 303° |
| 2026-04-27 12:14 | 51.19262 | 71.77927 | 3798 ft | 182 kts | 284° |
| 2026-04-27 12:14 | 51.19402 | 71.75924 | 3798 ft | 183 kts | 266° |
| 2026-04-27 12:15 | 51.19041 | 71.74010 | 3784 ft | 183 kts | 237° |
| 2026-04-27 12:15 | 51.18251 | 71.72416 | 3798 ft | 184 kts | 232° |
| 2026-04-27 12:15 | 51.17459 | 71.70798 | 3805 ft | 186 kts | 232° |
| 2026-04-27 12:15 | 51.16602 | 71.69231 | 3804 ft | 189 kts | 229° |
| 2026-04-27 12:16 | 51.15691 | 71.67716 | 3801 ft | 190 kts | 227° |
| 2026-04-27 12:16 | 51.14757 | 71.66225 | 3800 ft | 190 kts | 226° |
| 2026-04-27 12:16 | 51.13821 | 71.64749 | 3796 ft | 190 kts | 225° |
| 2026-04-27 12:16 | 51.12882 | 71.63278 | 3793 ft | 189 kts | 225° |
| 2026-04-27 12:17 | 51.11937 | 71.61794 | 3592 ft | 192 kts | 225° |
| 2026-04-27 12:17 | 51.10999 | 71.60320 | 3317 ft | 185 kts | 225° |
| 2026-04-27 12:17 | 51.10121 | 71.58942 | 3085 ft | 168 kts | 224° |
| 2026-04-27 12:17 | 51.09322 | 71.57692 | 2846 ft | 155 kts | 225° |
| 2026-04-27 12:18 | 51.08560 | 71.56495 | 2672 ft | 155 kts | 225° |
| 2026-04-27 12:18 | 51.07794 | 71.55290 | 2451 ft | 155 kts | 225° |
| 2026-04-27 12:18 | 51.07030 | 71.54091 | 2238 ft | 155 kts | 225° |
| 2026-04-27 12:18 | 51.06269 | 71.52898 | 2029 ft | 152 kts | 224° |
| 2026-04-27 12:19 | 51.05509 | 71.51709 | 1794 ft | 153 kts | 225° |
| 2026-04-27 12:19 | 51.04754 | 71.50527 | 1588 ft | 152 kts | 224° |
| 2026-04-27 12:19 | 51.04001 | 71.49353 | 1382 ft | 152 kts | 223° |
| 2026-04-27 12:19 | 51.03240 | 71.48163 | 1192 ft | 153 kts | 224° |
| 2026-04-27 12:20 | 51.02565 | 71.47097 | 1167 ft | 113 kts | 224° |
| 2026-04-27 12:20 | 51.02135 | 71.46424 | 1166 ft | 60 kts | 224° |
| 2026-04-27 12:20 | 51.01903 | 71.46062 | 1168 ft | 30 kts | 224° |
| 2026-04-27 12:20 | 51.01789 | 71.45884 | 1169 ft | 17 kts | 224° |
| 2026-04-27 12:21 | 51.01721 | 71.45773 | 1168 ft | 14 kts | 237° |
| 2026-04-27 12:21 | 51.01706 | 71.45712 | 1168 ft | 6 kts | 259° |
| 2026-04-27 12:21 | 51.01713 | 71.45644 | 1166 ft | 7 kts | 294° |
| 2026-04-27 12:21 | 51.01749 | 71.45573 | 1165 ft | 9 kts | 311° |
| 2026-04-27 12:22 | 51.01800 | 71.45513 | 1165 ft | 10 kts | 351° |
| 2026-04-27 12:22 | 51.01862 | 71.45553 | 1166 ft | 10 kts | 41° |
| 2026-04-27 12:22 | 51.01912 | 71.45632 | 1166 ft | 10 kts | 45° |
| 2026-04-27 12:22 | 51.01964 | 71.45712 | 1166 ft | 10 kts | 44° |
| 2026-04-27 12:23 | 51.02017 | 71.45790 | 1167 ft | 10 kts | 42° |
| 2026-04-27 12:23 | 51.02071 | 71.45867 | 1165 ft | 10 kts | 43° |
| 2026-04-27 12:23 | 51.02123 | 71.45946 | 1165 ft | 10 kts | 43° |
| 2026-04-27 12:23 | 51.02176 | 71.46024 | 1165 ft | 10 kts | 43° |
| 2026-04-27 12:24 | 51.02228 | 71.46104 | 1165 ft | 10 kts | 45° |
| 2026-04-27 12:24 | 51.02279 | 71.46185 | 1166 ft | 10 kts | 43° |
| 2026-04-27 12:24 | 51.02344 | 71.46205 | 1164 ft | 11 kts | 330° |
| 2026-04-27 12:24 | 51.02388 | 71.46150 | 1164 ft | 3 kts | 320° |
| 2026-04-27 12:25 | 51.02406 | 71.46125 | 1164 ft | 4 kts | 319° |
| 2026-04-27 12:25 | 51.02431 | 71.46102 | 1165 ft | 4 kts | 343° |
| 2026-04-27 12:25 | 51.02463 | 71.46092 | 1165 ft | 5 kts | 354° |
| 2026-04-27 12:25 | 51.02500 | 71.46090 | 1166 ft | 6 kts | 359° |
| 2026-04-27 12:26 | 51.02543 | 71.46088 | 1166 ft | 7 kts | 359° |
| 2026-04-27 12:26 | 51.02590 | 71.46084 | 1164 ft | 7 kts | 356° |
| 2026-04-27 12:26 | 51.02612 | 71.46082 | 1166 ft | 0 kts | 356° |